Time;durP1;ratioP1;P1;durP2;ratioP2;P2;SDS_P1;SDS_P2;PMS_P1;PMS_P2;Temp;Humidity;BMP_temperature;BMP_pressure;BME280_temperature;BME280_humidity;BME280_pressure;Samples;Min_cycle;Max_cycle;Signal;HPM_P1;HPM_P2
2021/12/30 00:01:19;;;;;;;7.45;2.55;;;15.40;81.20;;;;;;4094445;28;20050;-59
2021/12/30 00:03:42;;;;;;;11.50;3.90;;;15.30;81.20;;;;;;4094511;28;20047;-59
2021/12/30 00:06:06;;;;;;;10.50;2.88;;;15.30;81.20;;;;;;4096067;28;20110;-58
2021/12/30 00:08:29;;;;;;;13.50;3.20;;;15.30;81.30;;;;;;4095103;28;20050;-59
2021/12/30 00:10:53;;;;;;;16.02;3.47;;;15.30;81.30;;;;;;4094545;28;20055;-59
2021/12/30 00:13:17;;;;;;;13.43;3.17;;;15.30;81.40;;;;;;4107197;28;20051;-59
2021/12/30 00:15:41;;;;;;;18.83;3.40;;;15.30;81.50;;;;;;4111050;28;20082;-60
2021/12/30 00:18:05;;;;;;;9.70;3.10;;;15.20;81.30;;;;;;4110717;28;20050;-59
2021/12/30 00:20:28;;;;;;;15.43;3.28;;;15.30;81.40;;;;;;4110818;28;20042;-59
2021/12/30 00:22:51;;;;;;;19.50;3.10;;;15.30;81.60;;;;;;4100161;28;20895;-59
2021/12/30 00:25:15;;;;;;;16.98;4.00;;;15.20;81.70;;;;;;4094838;28;20043;-59
2021/12/30 00:27:38;;;;;;;13.90;3.42;;;15.20;81.70;;;;;;4094759;28;20562;-59
2021/12/30 00:30:05;;;;;;;11.70;3.30;;;15.20;82.00;;;;;;4094562;28;20612;-60
2021/12/30 00:32:28;;;;;;;15.30;4.05;;;15.20;82.00;;;;;;4094648;28;20152;-59
2021/12/30 00:34:51;;;;;;;13.75;3.72;;;15.20;81.90;;;;;;4101623;28;20054;-59
2021/12/30 00:37:14;;;;;;;22.20;5.18;;;15.10;81.70;;;;;;4108959;28;20467;-59
2021/12/30 00:39:37;;;;;;;16.45;3.40;;;15.20;82.00;;;;;;4110919;28;20067;-59
2021/12/30 00:42:00;;;;;;;15.85;3.47;;;15.20;82.00;;;;;;4110678;28;20466;-59
2021/12/30 00:44:24;;;;;;;19.48;4.45;;;15.20;82.10;;;;;;4109300;28;20046;-59
2021/12/30 00:46:48;;;;;;;23.05;2.78;;;15.20;82.30;;;;;;4106075;28;20047;-60
2021/12/30 00:49:13;;;;;;;17.45;4.15;;;15.10;82.30;;;;;;4094844;28;20055;-59
2021/12/30 00:51:37;;;;;;;18.85;3.58;;;15.10;82.30;;;;;;4094758;28;20140;-59
2021/12/30 00:54:00;;;;;;;18.73;3.55;;;15.10;82.40;;;;;;4095669;28;20094;-59
2021/12/30 00:56:23;;;;;;;22.27;4.38;;;15.10;82.60;;;;;;4094755;28;20110;-60
2021/12/30 00:58:46;;;;;;;24.27;4.57;;;15.10;82.90;;;;;;4097885;28;20056;-60
2021/12/30 01:01:09;;;;;;;19.85;4.03;;;15.10;82.80;;;;;;4110700;28;20402;-59
2021/12/30 01:03:34;;;;;;;15.35;3.72;;;15.20;82.80;;;;;;4108904;28;20455;-59
2021/12/30 01:05:58;;;;;;;17.52;4.43;;;15.30;82.70;;;;;;4110636;28;20859;-59
2021/12/30 01:08:20;;;;;;;28.73;4.80;;;15.30;82.40;;;;;;4110436;28;20101;-59
2021/12/30 01:10:45;;;;;;;22.48;5.00;;;15.30;82.10;;;;;;4103597;28;20087;-59
2021/12/30 01:13:15;;;;;;;17.15;4.80;;;15.40;82.00;;;;;;4093642;28;20106;-60
2021/12/30 01:15:49;;;;;;;16.90;3.53;;;15.40;81.80;;;;;;4094498;28;20051;-60
2021/12/30 01:18:25;;;;;;;22.30;5.32;;;15.40;81.90;;;;;;4094268;28;20435;-59
2021/12/30 01:20:50;;;;;;;19.23;4.03;;;15.40;81.90;;;;;;4093920;28;20099;-59
2021/12/30 01:23:13;;;;;;;15.27;4.15;;;15.50;81.90;;;;;;4101106;28;20427;-59
2021/12/30 01:25:36;;;;;;;21.92;4.65;;;15.50;81.60;;;;;;4109358;28;20479;-59
2021/12/30 01:27:59;;;;;;;19.27;4.35;;;15.60;81.30;;;;;;4102762;28;20051;-60
2021/12/30 01:30:22;;;;;;;18.48;4.25;;;15.70;82.00;;;;;;4110094;28;20105;-59
2021/12/30 01:32:46;;;;;;;23.98;5.60;;;15.70;80.90;;;;;;4110440;28;20058;-59
2021/12/30 01:35:12;;;;;;;18.85;4.47;;;15.70;80.60;;;;;;4101478;28;20397;-59
2021/12/30 01:37:37;;;;;;;17.85;4.55;;;15.70;80.60;;;;;;4094249;28;20054;-59
2021/12/30 01:40:00;;;;;;;24.33;4.75;;;15.70;80.60;;;;;;4093802;28;20044;-60
2021/12/30 01:42:23;;;;;;;20.63;4.80;;;15.70;80.60;;;;;;4095779;28;20058;-59
2021/12/30 01:44:46;;;;;;;25.85;5.15;;;15.70;80.60;;;;;;4097580;28;20065;-59
2021/12/30 01:47:10;;;;;;;20.10;5.65;;;15.70;80.60;;;;;;4105398;28;20442;-59
2021/12/30 01:49:32;;;;;;;27.52;5.72;;;15.70;80.70;;;;;;4113174;28;20054;-59
2021/12/30 01:51:56;;;;;;;29.95;5.00;;;15.70;80.60;;;;;;4113318;28;20046;-59
2021/12/30 01:54:21;;;;;;;27.90;4.97;;;15.80;80.70;;;;;;4113191;28;20058;-59
2021/12/30 01:56:45;;;;;;;26.80;4.90;;;15.80;80.30;;;;;;4096723;28;20047;-59
2021/12/30 01:59:09;;;;;;;29.27;5.60;;;15.90;80.00;;;;;;4106673;28;20105;-59
2021/12/30 02:01:32;;;;;;;28.77;6.15;;;15.90;79.60;;;;;;4113275;28;20097;-59
2021/12/30 02:03:56;;;;;;;26.17;4.97;;;15.90;79.50;;;;;;4113152;28;20050;-59
2021/12/30 02:06:21;;;;;;;21.50;4.72;;;16.00;79.50;;;;;;4111135;28;20051;-59
2021/12/30 02:08:44;;;;;;;30.30;6.07;;;15.90;79.50;;;;;;4112900;28;20076;-59
2021/12/30 02:11:08;;;;;;;24.35;4.65;;;15.90;79.50;;;;;;4113147;28;20054;-59
2021/12/30 02:13:31;;;;;;;30.63;4.95;;;15.90;79.60;;;;;;4112744;28;20470;-60
2021/12/30 02:16:00;;;;;;;19.15;4.80;;;15.90;79.80;;;;;;4111041;28;20047;-59
2021/12/30 02:18:23;;;;;;;29.40;5.32;;;15.80;79.80;;;;;;4096563;28;20102;-59
2021/12/30 02:20:51;;;;;;;28.00;5.43;;;15.80;80.00;;;;;;4096817;28;20047;-59
2021/12/30 02:23:18;;;;;;;22.35;5.80;;;15.70;80.00;;;;;;4096471;28;20050;-59
2021/12/30 02:25:41;;;;;;;23.63;5.45;;;15.70;80.20;;;;;;4096618;28;20059;-60
2021/12/30 02:28:07;;;;;;;30.35;5.20;;;15.70;80.40;;;;;;4109418;28;20062;-60
2021/12/30 02:30:30;;;;;;;25.48;4.68;;;15.70;80.30;;;;;;4110562;28;20047;-60
2021/12/30 02:32:53;;;;;;;28.27;5.45;;;15.60;80.40;;;;;;4110935;28;20050;-60
2021/12/30 02:35:16;;;;;;;20.13;4.50;;;15.60;80.40;;;;;;4107203;28;20483;-59
2021/12/30 02:37:41;;;;;;;22.85;5.30;;;15.60;80.60;;;;;;4096609;28;20051;-59
2021/12/30 02:40:06;;;;;;;24.55;5.10;;;15.70;80.60;;;;;;4095979;28;20106;-59
2021/12/30 02:42:29;;;;;;;30.90;5.88;;;15.70;80.60;;;;;;4096026;28;20102;-59
2021/12/30 02:44:53;;;;;;;23.73;5.15;;;15.70;80.30;;;;;;4097448;28;20212;-59
2021/12/30 02:47:16;;;;;;;30.08;6.55;;;15.70;80.30;;;;;;4110522;28;20097;-60
2021/12/30 02:49:41;;;;;;;25.10;6.00;;;15.70;80.30;;;;;;4112202;28;20086;-59
2021/12/30 02:52:04;;;;;;;27.23;5.38;;;15.70;80.30;;;;;;4112312;28;20059;-60
2021/12/30 02:54:28;;;;;;;26.30;5.28;;;15.70;80.10;;;;;;4112049;28;20085;-59
2021/12/30 02:56:51;;;;;;;21.83;5.13;;;15.70;80.00;;;;;;4111031;28;20050;-60
2021/12/30 02:59:15;;;;;;;25.63;6.10;;;15.70;80.00;;;;;;4096112;28;20047;-59
2021/12/30 03:01:37;;;;;;;32.00;5.53;;;15.70;80.20;;;;;;4095861;28;20511;-59
2021/12/30 03:04:03;;;;;;;24.10;4.85;;;15.70;80.30;;;;;;4096931;28;20055;-60
2021/12/30 03:06:27;;;;;;;28.45;5.38;;;15.80;80.10;;;;;;4096097;28;20047;-59
2021/12/30 03:08:51;;;;;;;22.25;5.20;;;15.80;79.80;;;;;;4095969;28;20047;-59
2021/12/30 03:11:16;;;;;;;20.50;4.70;;;15.90;79.60;;;;;;4111703;28;20491;-59
2021/12/30 03:13:42;;;;;;;27.85;5.75;;;15.90;79.50;;;;;;4112182;28;20046;-59
2021/12/30 03:16:08;;;;;;;24.23;5.38;;;15.90;79.50;;;;;;4112126;28;20062;-59
2021/12/30 03:18:32;;;;;;;19.80;5.28;;;15.90;79.50;;;;;;4111956;28;20097;-59
2021/12/30 03:20:55;;;;;;;22.85;6.28;;;15.90;79.60;;;;;;4110007;28;20051;-59
2021/12/30 03:23:18;;;;;;;22.52;5.35;;;15.90;79.50;;;;;;4096082;28;20046;-60
2021/12/30 03:25:41;;;;;;;28.75;6.70;;;15.90;79.50;;;;;;4095684;28;20051;-59
2021/12/30 03:28:05;;;;;;;30.08;7.32;;;15.80;79.30;;;;;;4094041;28;20834;-60
2021/12/30 03:30:29;;;;;;;25.63;6.10;;;15.80;79.50;;;;;;4095765;28;20562;-60
2021/12/30 03:32:52;;;;;;;22.08;5.07;;;15.80;79.70;;;;;;4095871;28;20059;-59
2021/12/30 03:35:15;;;;;;;22.35;4.72;;;15.80;80.00;;;;;;4121050;28;20100;-60
2021/12/30 03:37:39;;;;;;;21.67;5.97;;;15.80;80.10;;;;;;4104741;28;20055;-60
2021/12/30 03:40:03;;;;;;;23.83;5.13;;;15.80;79.90;;;;;;4111442;28;20093;-59
2021/12/30 03:42:26;;;;;;;31.20;6.63;;;15.90;79.60;;;;;;4111793;28;20529;-60
2021/12/30 03:44:52;;;;;;;26.90;6.38;;;15.90;79.50;;;;;;4111287;28;20101;-60
2021/12/30 03:47:18;;;;;;;22.23;5.53;;;15.90;79.50;;;;;;4097969;28;20043;-60
2021/12/30 03:49:44;;;;;;;25.42;6.10;;;16.00;79.30;;;;;;4095510;28;20122;-59
2021/12/30 03:52:07;;;;;;;27.92;7.15;;;16.00;79.00;;;;;;4096234;28;20143;-60
2021/12/30 03:54:30;;;;;;;25.77;6.03;;;16.00;78.80;;;;;;4094528;28;20051;-60
2021/12/30 03:56:53;;;;;;;19.42;6.15;;;16.10;78.80;;;;;;4094525;28;20483;-60
2021/12/30 03:59:16;;;;;;;23.02;6.47;;;16.10;78.70;;;;;;4106432;28;20105;-60
2021/12/30 04:01:41;;;;;;;21.45;6.35;;;16.20;78.40;;;;;;4110781;28;20059;-59
2021/12/30 04:04:04;;;;;;;23.10;5.45;;;16.30;78.10;;;;;;4110491;28;20561;-60
2021/12/30 04:06:28;;;;;;;25.20;6.30;;;16.30;77.80;;;;;;4110791;28;20744;-60
2021/12/30 04:08:50;;;;;;;23.65;6.63;;;16.40;77.50;;;;;;4109576;28;20105;-60
2021/12/30 04:11:13;;;;;;;24.08;5.65;;;16.40;77.20;;;;;;4101434;28;20098;-59
2021/12/30 04:13:37;;;;;;;22.17;6.53;;;16.40;77.10;;;;;;4094886;28;20054;-60
2021/12/30 04:16:00;;;;;;;20.27;6.10;;;16.40;77.10;;;;;;4094920;28;20054;-60
2021/12/30 04:18:25;;;;;;;24.25;6.07;;;16.40;77.20;;;;;;4094818;28;20051;-60
2021/12/30 04:20:48;;;;;;;22.65;5.82;;;16.30;77.20;;;;;;4094990;28;20047;-60
2021/12/30 04:23:11;;;;;;;24.67;5.75;;;16.30;77.50;;;;;;4104486;28;20050;-59
2021/12/30 04:25:35;;;;;;;18.95;5.95;;;16.30;77.80;;;;;;4109156;28;20113;-59
2021/12/30 04:27:58;;;;;;;28.55;6.10;;;16.30;78.80;;;;;;4110898;28;20054;-59
2021/12/30 04:30:20;;;;;;;23.15;5.65;;;16.30;77.70;;;;;;4110590;28;20054;-60
2021/12/30 04:32:45;;;;;;;23.23;6.78;;;16.40;78.10;;;;;;4110720;28;20101;-60
2021/12/30 04:35:10;;;;;;;25.02;7.00;;;16.50;77.10;;;;;;4100336;28;20106;-60
2021/12/30 04:37:33;;;;;;;23.30;6.60;;;16.50;76.70;;;;;;4094966;28;20480;-60
2021/12/30 04:39:56;;;;;;;25.30;6.15;;;16.60;76.50;;;;;;4094656;28;20051;-60
2021/12/30 04:42:19;;;;;;;21.23;6.63;;;16.60;76.30;;;;;;4110164;28;20442;-60
2021/12/30 04:44:43;;;;;;;22.60;6.72;;;16.60;76.30;;;;;;4110725;28;20050;-59
2021/12/30 04:47:06;;;;;;;23.95;6.88;;;16.60;76.30;;;;;;4099617;28;20428;-59
2021/12/30 04:49:29;;;;;;;21.08;6.43;;;16.50;76.50;;;;;;4094577;28;20058;-60
2021/12/30 04:51:54;;;;;;;20.42;5.72;;;16.50;76.70;;;;;;4094645;28;20625;-60
2021/12/30 04:54:17;;;;;;;28.95;6.95;;;16.50;76.80;;;;;;4094814;28;20051;-59
2021/12/30 04:56:40;;;;;;;21.60;6.13;;;16.40;77.90;;;;;;4094325;28;20488;-59
2021/12/30 04:59:03;;;;;;;27.42;6.57;;;16.30;77.30;;;;;;4102708;28;20059;-60
2021/12/30 05:01:26;;;;;;;25.02;5.60;;;16.30;77.50;;;;;;4110470;28;20069;-59
2021/12/30 05:03:49;;;;;;;24.73;6.65;;;16.30;77.80;;;;;;4110065;28;20120;-60
2021/12/30 05:06:12;;;;;;;27.80;6.47;;;16.20;78.10;;;;;;4110091;28;20054;-58
2021/12/30 05:08:37;;;;;;;25.13;6.18;;;16.10;78.30;;;;;;4110552;28;20101;-60
2021/12/30 05:11:00;;;;;;;28.17;6.78;;;16.10;78.60;;;;;;4102654;28;20055;-59
2021/12/30 05:13:23;;;;;;;21.25;6.93;;;16.00;78.80;;;;;;4095284;28;20059;-59
2021/12/30 05:15:47;;;;;;;24.52;7.20;;;16.00;79.20;;;;;;4093994;28;20102;-59
2021/12/30 05:18:13;;;;;;;27.50;7.13;;;16.00;79.10;;;;;;4096711;28;20106;-60
2021/12/30 05:20:37;;;;;;;23.58;6.03;;;16.20;78.80;;;;;;4097313;28;20063;-60
2021/12/30 05:23:00;;;;;;;26.20;6.63;;;16.20;78.30;;;;;;4104809;28;20174;-60
2021/12/30 05:25:24;;;;;;;20.60;6.18;;;16.30;77.90;;;;;;4113245;28;20055;-60
2021/12/30 05:27:48;;;;;;;25.52;6.25;;;16.40;77.80;;;;;;4113243;28;20129;-60
2021/12/30 05:30:13;;;;;;;29.88;7.95;;;16.40;77.60;;;;;;4111791;28;20051;-60
2021/12/30 05:32:36;;;;;;;25.95;7.07;;;16.40;77.40;;;;;;4113024;28;20530;-60
2021/12/30 05:35:00;;;;;;;33.38;8.52;;;16.50;77.30;;;;;;4102965;28;20064;-59
2021/12/30 05:37:23;;;;;;;25.00;6.35;;;16.50;77.20;;;;;;4097324;28;20443;-60
2021/12/30 05:39:46;;;;;;;24.70;7.03;;;16.40;77.20;;;;;;4097348;28;20051;-60
2021/12/30 05:42:10;;;;;;;30.50;7.63;;;16.40;77.20;;;;;;4097202;28;20144;-58
2021/12/30 05:44:33;;;;;;;30.25;7.57;;;16.40;77.40;;;;;;4098047;28;20051;-60
2021/12/30 05:46:56;;;;;;;24.67;7.40;;;16.30;77.60;;;;;;4104714;28;20117;-61
2021/12/30 05:49:20;;;;;;;19.33;6.43;;;16.30;77.80;;;;;;4113187;28;20050;-60
2021/12/30 05:51:43;;;;;;;28.17;9.23;;;16.20;77.90;;;;;;4113479;28;20459;-59
2021/12/30 05:54:06;;;;;;;21.60;7.38;;;16.20;78.20;;;;;;4113379;28;20073;-59
2021/12/30 05:56:29;;;;;;;20.65;6.63;;;16.20;78.50;;;;;;4113128;28;20184;-60
2021/12/30 05:58:53;;;;;;;20.15;7.63;;;16.10;78.70;;;;;;4105869;28;20479;-60
2021/12/30 06:01:16;;;;;;;25.13;6.43;;;16.20;78.90;;;;;;4097934;28;20476;-60
2021/12/30 06:03:40;;;;;;;24.00;6.60;;;16.20;78.60;;;;;;4096754;28;20055;-60
2021/12/30 06:06:03;;;;;;;17.10;5.85;;;16.30;78.30;;;;;;4097078;28;20059;-59
2021/12/30 06:08:26;;;;;;;18.27;5.82;;;16.30;78.10;;;;;;4096941;28;20106;-59
2021/12/30 06:10:49;;;;;;;17.88;5.72;;;16.40;78.00;;;;;;4105043;28;20085;-60
2021/12/30 06:13:13;;;;;;;10.93;4.72;;;16.40;77.80;;;;;;4111502;28;20055;-60
2021/12/30 06:15:38;;;;;;;13.38;4.68;;;16.40;77.70;;;;;;4112597;28;20431;-60
2021/12/30 06:18:01;;;;;;;11.43;4.53;;;16.40;77.70;;;;;;4111318;28;20058;-59
2021/12/30 06:20:24;;;;;;;8.88;4.47;;;16.40;77.70;;;;;;4112880;28;22060;-60
2021/12/30 06:22:48;;;;;;;9.77;3.83;;;16.40;77.80;;;;;;4105186;28;20051;-59
2021/12/30 06:25:12;;;;;;;5.70;3.20;;;16.40;77.60;;;;;;4095609;28;20316;-60
2021/12/30 06:27:36;;;;;;;8.57;4.05;;;16.50;77.50;;;;;;4096353;28;20047;-60
2021/12/30 06:29:59;;;;;;;4.32;2.95;;;16.50;77.30;;;;;;4096715;28;20055;-59
2021/12/30 06:32:23;;;;;;;6.28;3.67;;;16.50;77.20;;;;;;4096667;28;20055;-59
2021/12/30 06:34:46;;;;;;;4.28;3.42;;;16.50;77.30;;;;;;4102750;28;20093;-60
2021/12/30 06:37:11;;;;;;;4.68;2.70;;;16.50;77.30;;;;;;4112202;28;20054;-60
2021/12/30 06:39:34;;;;;;;4.15;2.78;;;16.50;77.40;;;;;;4112083;28;20103;-60
2021/12/30 06:41:57;;;;;;;3.83;3.20;;;16.40;77.50;;;;;;4112496;28;20050;-60
2021/12/30 06:44:20;;;;;;;4.10;3.47;;;16.40;77.80;;;;;;4112074;28;20060;-60
2021/12/30 06:46:52;;;;;;;4.80;2.95;;;16.30;77.90;;;;;;4104902;28;20055;-60
2021/12/30 06:49:16;;;;;;;8.63;3.90;;;16.30;78.20;;;;;;4096171;28;20094;-60
2021/12/30 06:51:39;;;;;;;9.63;3.80;;;16.30;78.70;;;;;;4112140;28;20051;-59
2021/12/30 06:54:03;;;;;;;5.45;3.97;;;16.30;78.60;;;;;;4112180;28;20117;-60
2021/12/30 06:56:26;;;;;;;7.85;4.80;;;16.50;78.20;;;;;;4112084;28;20078;-60
2021/12/30 06:58:49;;;;;;;6.20;4.55;;;16.60;77.70;;;;;;4111402;28;20103;-60
2021/12/30 07:01:12;;;;;;;9.25;4.70;;;16.70;77.20;;;;;;4112107;28;20109;-59
2021/12/30 07:03:36;;;;;;;7.03;4.70;;;16.70;76.90;;;;;;4112234;28;20117;-60
2021/12/30 07:06:00;;;;;;;7.30;4.72;;;16.70;76.70;;;;;;4111104;28;20094;-59
2021/12/30 07:08:24;;;;;;;7.60;4.05;;;16.70;76.80;;;;;;4112063;28;20055;-60
2021/12/30 07:10:46;;;;;;;7.93;4.25;;;16.70;76.80;;;;;;4102473;28;20047;-60
2021/12/30 07:13:10;;;;;;;8.02;4.38;;;16.70;77.70;;;;;;4111844;28;20584;-59
2021/12/30 07:15:33;;;;;;;6.97;4.90;;;16.60;77.10;;;;;;4111824;28;20097;-60
2021/12/30 07:17:55;;;;;;;6.55;4.47;;;16.60;77.40;;;;;;4111901;28;20051;-59
2021/12/30 07:20:19;;;;;;;6.43;4.20;;;16.50;77.60;;;;;;4111878;28;20054;-61
2021/12/30 07:22:43;;;;;;;7.35;4.78;;;16.50;77.90;;;;;;4105762;28;20055;-60
2021/12/30 07:25:16;;;;;;;7.47;5.25;;;16.40;78.90;;;;;;4112683;28;20112;-60
2021/12/30 07:27:39;;;;;;;5.38;4.82;;;16.40;79.20;;;;;;4127388;28;20474;-58
2021/12/30 07:30:02;;;;;;;6.28;5.00;;;16.40;79.20;;;;;;4127797;28;20124;-59
2021/12/30 07:32:26;;;;;;;6.25;4.85;;;16.30;79.40;;;;;;4127784;28;20103;-60
2021/12/30 07:34:49;;;;;;;6.05;4.72;;;16.30;79.50;;;;;;4117209;28;20055;-59
2021/12/30 07:37:14;;;;;;;8.30;5.32;;;16.20;79.70;;;;;;4095727;28;20105;-59
2021/12/30 07:39:39;;;;;;;6.70;5.43;;;16.30;79.90;;;;;;4095566;28;20483;-60
2021/12/30 07:42:02;;;;;;;7.05;5.15;;;16.30;80.60;;;;;;4110042;28;20086;-60
2021/12/30 07:44:25;;;;;;;6.50;4.45;;;16.40;79.40;;;;;;4098707;28;20043;-59
2021/12/30 07:47:08;;;;;;;6.32;5.00;;;16.50;79.10;;;;;;4110844;28;20427;-59
2021/12/30 07:49:32;;;;;;;4.88;4.35;;;16.50;78.80;;;;;;4110758;28;20101;-60
2021/12/30 07:51:55;;;;;;;6.35;5.00;;;16.50;78.60;;;;;;4111293;28;20051;-60
2021/12/30 07:54:18;;;;;;;5.35;4.60;;;16.50;78.50;;;;;;4110455;28;20121;-59
2021/12/30 07:56:43;;;;;;;9.10;5.57;;;16.50;78.70;;;;;;4107446;28;20151;-60
2021/12/30 07:59:05;;;;;;;9.68;6.45;;;16.50;79.70;;;;;;4110595;28;20487;-59
2021/12/30 08:01:29;;;;;;;9.00;6.20;;;16.50;78.90;;;;;;4110582;28;20106;-58
2021/12/30 08:03:52;;;;;;;5.55;4.90;;;16.40;79.00;;;;;;4095064;28;20126;-60
2021/12/30 08:06:15;;;;;;;6.00;4.43;;;16.30;79.20;;;;;;4095089;28;20059;-61
2021/12/30 08:08:39;;;;;;;3.85;3.45;;;16.30;79.50;;;;;;4095330;28;20054;-60
2021/12/30 08:11:04;;;;;;;3.83;3.53;;;16.30;79.70;;;;;;4094963;28;20063;-60
2021/12/30 08:13:28;;;;;;;4.22;3.28;;;16.20;79.80;;;;;;4095199;28;20084;-59
2021/12/30 08:15:51;;;;;;;3.65;3.30;;;16.20;80.10;;;;;;4098704;28;20054;-62
2021/12/30 08:18:14;;;;;;;4.10;3.03;;;16.10;80.30;;;;;;4107278;28;20082;-60
2021/12/30 08:20:37;;;;;;;3.22;2.50;;;16.10;80.60;;;;;;4099876;28;20483;-60
2021/12/30 08:23:01;;;;;;;2.92;2.72;;;16.00;80.80;;;;;;4110553;28;20054;-59
2021/12/30 08:25:24;;;;;;;3.55;3.10;;;16.00;80.80;;;;;;4122460;28;20438;-59
2021/12/30 08:27:49;;;;;;;3.28;2.80;;;16.00;81.10;;;;;;4110463;28;20051;-59
2021/12/30 08:30:15;;;;;;;5.50;2.90;;;15.90;81.20;;;;;;4110661;28;20047;-59
2021/12/30 08:32:39;;;;;;;2.92;2.42;;;15.90;81.40;;;;;;4110632;28;20050;-60
2021/12/30 08:35:02;;;;;;;2.40;2.20;;;15.90;81.50;;;;;;4108824;28;20101;-59
2021/12/30 08:37:25;;;;;;;2.50;2.30;;;15.80;81.70;;;;;;4113176;28;20108;-59
2021/12/30 08:39:48;;;;;;;2.10;1.90;;;15.80;81.80;;;;;;4126094;28;20152;-59
2021/12/30 08:42:19;;;;;;;1.83;1.73;;;15.80;81.90;;;;;;4110194;28;20404;-60
2021/12/30 08:44:42;;;;;;;2.30;1.50;;;15.80;82.20;;;;;;4100602;28;20090;-59
2021/12/30 08:47:07;;;;;;;1.83;1.25;;;15.70;82.20;;;;;;4094690;28;20058;-59
2021/12/30 08:49:30;;;;;;;0.93;0.93;;;15.70;82.50;;;;;;4110513;28;20479;-59
2021/12/30 08:51:53;;;;;;;1.10;0.88;;;15.70;82.60;;;;;;4110025;28;20051;-59
2021/12/30 08:54:16;;;;;;;0.73;0.73;;;15.70;82.80;;;;;;4109034;28;20097;-59
2021/12/30 08:56:39;;;;;;;0.68;0.68;;;15.70;82.90;;;;;;4096143;28;20046;-59
2021/12/30 08:59:02;;;;;;;0.70;0.70;;;15.60;83.00;;;;;;4110460;28;20093;-59
2021/12/30 09:01:27;;;;;;;1.25;0.85;;;15.60;83.20;;;;;;4109992;28;20050;-59
2021/12/30 09:03:52;;;;;;;0.90;0.90;;;15.60;83.40;;;;;;4110594;28;20423;-59
2021/12/30 09:06:14;;;;;;;3.33;1.50;;;15.60;83.60;;;;;;4109931;28;20055;-59
2021/12/30 09:08:37;;;;;;;1.50;1.40;;;15.60;83.60;;;;;;4109832;28;20047;-59
2021/12/30 09:11:00;;;;;;;1.92;1.33;;;15.50;83.70;;;;;;4110126;28;20098;-59
2021/12/30 09:13:23;;;;;;;2.80;1.35;;;15.60;83.80;;;;;;4102857;28;20047;-70
2021/12/30 09:15:47;;;;;;;2.53;1.42;;;15.50;83.80;;;;;;4115018;28;20483;-59
2021/12/30 09:18:10;;;;;;;2.33;1.98;;;15.50;84.00;;;;;;4108060;28;20497;-59
2021/12/30 09:20:36;;;;;;;2.83;1.75;;;15.50;84.00;;;;;;4107716;28;20054;-58
2021/12/30 09:22:59;;;;;;;3.00;1.90;;;15.50;85.10;;;;;;4112953;28;20046;-59
2021/12/30 09:25:24;;;;;;;3.38;1.95;;;15.50;84.30;;;;;;4108167;28;20054;-59
2021/12/30 09:27:47;;;;;;;1.90;1.80;;;15.60;84.30;;;;;;4107645;28;20094;-59
2021/12/30 09:30:14;;;;;;;3.08;1.77;;;15.70;84.20;;;;;;4108443;28;20086;-59
2021/12/30 09:32:38;;;;;;;3.45;2.63;;;15.70;84.10;;;;;;4111676;28;20043;-60
2021/12/30 09:35:02;;;;;;;4.05;2.63;;;15.80;83.90;;;;;;4123101;28;20050;-59
2021/12/30 09:37:26;;;;;;;5.82;2.67;;;15.80;83.80;;;;;;4120167;28;20569;-59
2021/12/30 09:39:49;;;;;;;6.13;3.22;;;15.80;83.80;;;;;;4108048;28;20560;-59
2021/12/30 09:42:13;;;;;;;6.03;3.17;;;15.80;83.70;;;;;;4107908;28;20502;-59
2021/12/30 09:44:36;;;;;;;4.45;2.50;;;15.80;83.70;;;;;;4108024;28;20059;-60
2021/12/30 09:47:00;;;;;;;7.95;4.35;;;15.80;83.80;;;;;;4108292;28;20159;-60
2021/12/30 09:49:27;;;;;;;7.22;2.85;;;15.80;83.90;;;;;;4107806;28;20105;-60
2021/12/30 09:51:51;;;;;;;9.63;5.22;;;15.80;83.90;;;;;;4109560;28;20113;-60
2021/12/30 09:54:16;;;;;;;7.25;3.90;;;15.90;84.00;;;;;;4112668;28;20534;-59
2021/12/30 09:56:40;;;;;;;8.95;4.18;;;15.90;84.10;;;;;;4115950;28;20050;-59
2021/12/30 09:59:04;;;;;;;7.25;3.28;;;15.90;84.00;;;;;;4122224;28;20117;-60
2021/12/30 10:01:27;;;;;;;11.23;6.00;;;15.80;83.90;;;;;;4122213;28;20117;-60
2021/12/30 10:03:56;;;;;;;6.90;4.93;;;15.90;84.00;;;;;;4111754;28;20101;-60
2021/12/30 10:06:19;;;;;;;9.20;4.82;;;15.90;84.00;;;;;;4113407;28;20046;-59
2021/12/30 10:08:54;;;;;;;14.05;7.45;;;15.90;83.90;;;;;;4120298;28;20042;-59
2021/12/30 10:11:19;;;;;;;16.52;9.75;;;15.90;84.20;;;;;;4110407;28;20114;-59
2021/12/30 10:13:50;;;;;;;7.18;3.58;;;15.90;84.10;;;;;;4120352;28;20081;-60
2021/12/30 10:16:15;;;;;;;;;;;15.90;84.30;;;;;;4111082;28;20109;-60
2021/12/30 10:18:43;;;;;;;13.75;7.47;;;15.80;84.50;;;;;;4120796;28;19926;-60
2021/12/30 10:21:13;;;;;;;13.07;7.60;;;15.90;84.50;;;;;;4110144;28;20055;-60
2021/12/30 10:23:44;;;;;;;4.32;2.95;;;16.10;84.10;;;;;;4109335;28;20046;-60
2021/12/30 10:26:07;;;;;;;11.23;5.70;;;16.20;83.70;;;;;;4114046;28;20105;-60
2021/12/30 10:28:35;;;;;;;9.30;3.20;;;16.20;83.30;;;;;;4111312;28;20054;-59
2021/12/30 10:31:01;;;;;;;9.70;6.40;;;16.30;83.10;;;;;;4116093;28;20097;-59
2021/12/30 10:33:30;;;;;;;16.25;9.18;;;16.30;83.10;;;;;;4110026;28;20098;-59
2021/12/30 10:35:54;;;;;;;16.67;10.52;;;16.40;83.10;;;;;;4123041;28;20054;-59
2021/12/30 10:38:17;;;;;;;22.23;11.65;;;16.40;82.80;;;;;;4112612;28;20105;-59
2021/12/30 10:40:44;;;;;;;9.45;4.63;;;16.40;82.80;;;;;;4114438;28;20050;-59
2021/12/30 10:43:23;;;;;;;18.15;7.63;;;16.40;82.90;;;;;;4110847;28;20427;-59
2021/12/30 10:46:02;;;;;;;19.75;10.13;;;16.40;83.10;;;;;;4120033;28;20109;-59
2021/12/30 10:48:25;;;;;;;14.45;9.02;;;16.40;82.80;;;;;;4108508;28;20678;-60
2021/12/30 10:50:48;;;;;;;21.83;9.75;;;16.50;82.80;;;;;;4125507;28;20054;-60
2021/12/30 10:53:11;;;;;;;11.95;5.00;;;16.50;82.80;;;;;;4125495;28;20050;-60
2021/12/30 10:55:35;;;;;;;23.75;11.30;;;16.50;82.70;;;;;;4109996;28;20055;-59
2021/12/30 10:57:59;;;;;;;27.00;14.50;;;16.50;82.80;;;;;;4116313;28;20054;-60
2021/12/30 11:00:28;;;;;;;18.75;9.52;;;16.40;82.90;;;;;;4109535;28;20058;-60
2021/12/30 11:02:52;;;;;;;12.45;5.65;;;16.40;83.10;;;;;;4110121;28;20490;-59
2021/12/30 11:05:18;;;;;;;20.65;13.50;;;16.40;83.40;;;;;;4109795;28;20121;-59
2021/12/30 11:07:43;;;;;;;33.42;19.23;;;16.30;83.40;;;;;;4116797;28;20483;-59
2021/12/30 11:10:07;;;;;;;23.17;13.38;;;16.30;83.60;;;;;;4114578;28;20567;-60
2021/12/30 11:12:32;;;;;;;20.15;11.63;;;16.30;83.80;;;;;;4109685;28;20475;-60
2021/12/30 11:14:56;;;;;;;13.65;7.30;;;16.30;84.00;;;;;;4118202;28;20058;-59
2021/12/30 11:17:22;;;;;;;23.80;12.60;;;16.20;84.20;;;;;;4110690;28;20094;-59
2021/12/30 11:19:50;;;;;;;18.75;8.35;;;16.20;84.50;;;;;;4112791;28;20113;-59
2021/12/30 11:22:15;;;;;;;25.20;13.50;;;16.20;84.70;;;;;;4112958;28;20047;-59
2021/12/30 11:24:40;;;;;;;25.17;14.18;;;16.30;84.60;;;;;;4109368;28;20055;-59
2021/12/30 11:27:08;;;;;;;17.55;6.03;;;16.40;84.40;;;;;;4109344;28;20137;-59
2021/12/30 11:29:31;;;;;;;31.00;14.93;;;16.40;84.20;;;;;;4114028;28;20055;-59
2021/12/30 11:31:54;;;;;;;20.48;9.10;;;16.50;83.80;;;;;;4113322;28;20054;-58
2021/12/30 11:34:18;;;;;;;16.13;6.20;;;16.50;83.80;;;;;;4115066;28;20113;-59
2021/12/30 11:36:43;;;;;;;19.45;8.73;;;16.50;83.80;;;;;;4110118;28;20054;-59
2021/12/30 11:39:14;;;;;;;24.23;7.18;;;16.40;83.80;;;;;;4110153;28;20055;-59
2021/12/30 11:41:38;;;;;;;17.17;6.13;;;16.40;83.80;;;;;;4109224;28;20554;-59
2021/12/30 11:44:01;;;;;;;20.15;6.15;;;16.40;84.00;;;;;;4111212;28;20105;-58
2021/12/30 11:46:42;;;;;;;16.80;5.68;;;16.40;84.10;;;;;;4116437;28;20054;-59
2021/12/30 11:49:09;;;;;;;18.48;7.65;;;16.30;84.30;;;;;;4109283;28;20050;-60
2021/12/30 11:51:43;;;;;;;20.80;9.32;;;16.30;84.40;;;;;;4109418;28;20058;-58
2021/12/30 11:54:36;;;;;;;19.25;7.82;;;16.30;84.60;;;;;;4115351;28;20167;-59
2021/12/30 11:57:25;;;;;;;23.63;8.57;;;16.20;84.70;;;;;;4108278;28;20054;-60
2021/12/30 11:59:48;;;;;;;22.35;7.45;;;16.20;85.00;;;;;;4111964;28;20058;-59
2021/12/30 12:02:28;;;;;;;24.02;10.13;;;16.10;85.00;;;;;;4108602;28;20663;-60
2021/12/30 12:04:51;;;;;;;23.73;11.13;;;16.10;85.40;;;;;;4118504;28;20077;-61
2021/12/30 12:07:15;;;;;;;24.13;7.32;;;16.10;85.40;;;;;;4109418;28;20195;-59
2021/12/30 12:09:42;;;;;;;21.00;6.57;;;16.00;85.40;;;;;;4108960;28;20113;-60
2021/12/30 12:12:09;;;;;;;18.98;6.10;;;16.00;85.50;;;;;;4121295;28;20054;-60
2021/12/30 12:14:36;;;;;;;23.85;5.80;;;16.00;85.70;;;;;;4123145;28;20490;-59
2021/12/30 12:17:01;;;;;;;25.88;6.72;;;16.00;85.80;;;;;;4117508;28;20091;-60
2021/12/30 12:19:34;;;;;;;30.42;8.00;;;15.90;85.90;;;;;;4111537;28;20494;-60
2021/12/30 12:21:58;;;;;;;22.55;6.18;;;15.90;86.20;;;;;;4108360;28;20055;-60
2021/12/30 12:24:34;;;;;;;30.38;9.43;;;15.90;86.10;;;;;;4108540;28;20503;-59
2021/12/30 12:26:59;;;;;;;21.90;5.55;;;15.90;86.30;;;;;;4108653;28;20043;-60